createdAt,value
2023-03-20T00:00:18.725Z,10.94
2023-03-20T00:02:48.291Z,11.23
2023-03-20T00:05:22.672Z,11.12
2023-03-20T00:07:54.253Z,11.05
2023-03-20T00:10:23.669Z,11.16
2023-03-20T00:12:53.282Z,11.27
2023-03-20T00:15:30.941Z,11.19
2023-03-20T00:17:59.521Z,11.18
2023-03-20T00:20:28.473Z,11.08
2023-03-20T00:22:58.120Z,11.13
2023-03-20T00:25:27.157Z,11.08
2023-03-20T00:27:58.466Z,10.83
2023-03-20T00:30:31.063Z,10.79
2023-03-20T00:33:03.863Z,10.93
2023-03-20T00:35:33.275Z,10.91
2023-03-20T00:38:04.359Z,11.09
2023-03-20T00:40:33.267Z,11.01
2023-03-20T00:43:07.800Z,11.02
2023-03-20T00:45:37.020Z,10.83
2023-03-20T00:48:12.464Z,10.96
2023-03-20T00:50:41.023Z,11.05
2023-03-20T00:53:11.891Z,10.82
2023-03-20T00:55:42.820Z,10.84
2023-03-20T00:58:14.398Z,11.02
2023-03-20T01:00:47.537Z,10.93
2023-03-20T01:03:19.118Z,10.96
2023-03-20T01:05:49.635Z,11.14
2023-03-20T01:08:21.536Z,11.06
2023-03-20T01:10:54.999Z,10.93
2023-03-20T01:13:28.351Z,10.99
2023-03-20T01:15:58.715Z,10.71
2023-03-20T01:18:28.130Z,10.78
2023-03-20T01:20:56.795Z,10.82
2023-03-20T01:23:31.404Z,10.76
2023-03-20T01:26:00.857Z,11.02
2023-03-20T01:28:32.725Z,10.74
2023-03-20T01:31:01.179Z,10.91
2023-03-20T01:33:29.704Z,10.49
2023-03-20T01:35:59.783Z,10.83
2023-03-20T01:38:29.476Z,10.98
2023-03-20T01:41:00.922Z,10.96
2023-03-20T01:43:31.339Z,10.93
2023-03-20T01:46:04.489Z,10.84
2023-03-20T01:48:57.413Z,10.69
2023-03-20T01:51:26.986Z,10.71
2023-03-20T01:53:59.490Z,10.86
2023-03-20T01:56:33.219Z,10.68
2023-03-20T01:59:08.256Z,10.82
2023-03-20T02:01:40.265Z,10.69
2023-03-20T02:04:10.110Z,10.60
2023-03-20T02:06:40.424Z,10.68
2023-03-20T02:09:09.968Z,10.56
2023-03-20T02:11:39.198Z,10.63
2023-03-20T02:14:09.873Z,10.83
2023-03-20T02:16:38.731Z,10.83
2023-03-20T02:19:10.647Z,10.74
2023-03-20T02:22:11.633Z,10.84
2023-03-20T02:25:15.971Z,10.65
2023-03-20T02:28:03.852Z,10.76
2023-03-20T02:31:02.384Z,11.06
2023-03-20T02:34:17.776Z,10.83
2023-03-20T02:37:33.568Z,10.94
2023-03-20T02:40:23.485Z,10.74
2023-03-20T02:43:01.437Z,10.72
2023-03-20T02:45:32.666Z,10.71
2023-03-20T02:48:13.617Z,10.69
2023-03-20T02:50:51.398Z,10.50
2023-03-20T02:53:33.712Z,10.26
2023-03-20T02:56:09.815Z,10.40
2023-03-20T02:58:46.179Z,10.56
2023-03-20T03:01:21.380Z,10.74
2023-03-20T03:03:56.073Z,10.57
2023-03-20T03:06:30.385Z,10.54
2023-03-20T03:09:05.888Z,10.64
2023-03-20T03:11:40.103Z,10.71
2023-03-20T03:14:11.449Z,10.64
2023-03-20T03:16:44.946Z,10.58
2023-03-20T03:19:19.200Z,10.63
2023-03-20T03:21:49.735Z,10.49
2023-03-20T03:24:40.311Z,10.80
2023-03-20T03:27:17.563Z,10.98
2023-03-20T03:29:55.407Z,10.95
2023-03-20T03:32:30.865Z,10.88
2023-03-20T03:35:02.619Z,10.68
2023-03-20T03:37:43.508Z,10.48
2023-03-20T03:40:21.634Z,10.75
2023-03-20T03:42:59.536Z,10.91
2023-03-20T03:45:37.623Z,10.59
2023-03-20T03:48:12.142Z,10.87
2023-03-20T03:50:49.028Z,10.93
2023-03-20T03:53:22.770Z,10.87
2023-03-20T03:55:55.113Z,10.90
2023-03-20T03:58:30.966Z,10.90
2023-03-20T04:01:04.577Z,10.98
2023-03-20T04:03:40.543Z,10.81
2023-03-20T04:06:12.958Z,10.97
2023-03-20T04:08:42.692Z,11.02
2023-03-20T04:11:16.685Z,10.76
2023-03-20T04:13:49.012Z,10.63
2023-03-20T04:16:19.762Z,10.73
2023-03-20T04:18:51.952Z,10.59
2023-03-20T04:21:21.170Z,10.65
2023-03-20T04:23:49.240Z,10.31
2023-03-20T04:26:17.780Z,10.54
2023-03-20T04:28:47.813Z,10.70
2023-03-20T04:31:18.185Z,10.66
2023-03-20T04:33:51.259Z,10.55
2023-03-20T04:36:19.606Z,10.47
2023-03-20T04:38:48.147Z,10.76
2023-03-20T04:41:16.142Z,10.74
2023-03-20T04:43:44.505Z,10.71
2023-03-20T04:46:16.060Z,10.89
2023-03-20T04:48:45.255Z,10.86
2023-03-20T04:51:16.499Z,10.85
2023-03-20T04:53:44.396Z,10.78
2023-03-20T04:56:15.736Z,10.71
2023-03-20T04:58:43.932Z,10.98
2023-03-20T05:01:17.275Z,10.76
2023-03-20T05:03:46.566Z,11.04
2023-03-20T05:06:18.572Z,10.90
2023-03-20T05:08:50.243Z,10.84
2023-03-20T05:11:18.391Z,10.68
2023-03-20T05:13:46.572Z,10.87
2023-03-20T05:16:17.007Z,10.88
2023-03-20T05:18:45.607Z,10.87
2023-03-20T05:21:14.003Z,10.83
2023-03-20T05:23:42.378Z,10.89
2023-03-20T05:26:12.410Z,10.66
2023-03-20T05:28:41.217Z,10.70
2023-03-20T05:31:10.621Z,10.80
2023-03-20T05:33:40.444Z,11.04
2023-03-20T05:36:11.805Z,10.92
2023-03-20T05:38:41.219Z,10.73
2023-03-20T05:41:11.658Z,11.06
2023-03-20T05:43:40.192Z,10.91
2023-03-20T05:46:09.166Z,11.24
2023-03-20T05:48:40.727Z,11.26
2023-03-20T05:51:10.221Z,11.27
2023-03-20T05:53:38.190Z,10.92
2023-03-20T05:56:09.577Z,10.85
2023-03-20T05:58:38.407Z,11.44
2023-03-20T06:01:07.120Z,10.98
2023-03-20T06:03:36.750Z,11.12
2023-03-20T06:06:07.015Z,11.02
2023-03-20T06:08:37.997Z,11.22
2023-03-20T06:11:07.197Z,11.09
2023-03-20T06:13:36.975Z,11.33
2023-03-20T06:16:06.014Z,11.30
2023-03-20T06:18:34.635Z,11.19
2023-03-20T06:21:04.486Z,11.20
2023-03-20T06:23:36.314Z,11.50
2023-03-20T06:26:05.253Z,11.41
2023-03-20T06:28:34.744Z,11.30
2023-03-20T06:31:05.362Z,11.14
2023-03-20T06:33:33.723Z,11.49
2023-03-20T06:36:02.454Z,11.74
2023-03-20T06:38:30.681Z,11.38
2023-03-20T06:41:02.121Z,11.82
2023-03-20T06:43:33.760Z,11.74
2023-03-20T06:46:01.756Z,11.57
2023-03-20T06:48:30.168Z,11.43
2023-03-20T06:50:58.555Z,11.55
2023-03-20T06:53:28.115Z,11.59
2023-03-20T06:55:57.194Z,11.56
2023-03-20T06:58:27.123Z,11.15
2023-03-20T07:00:55.362Z,11.52
2023-03-20T07:03:25.389Z,11.31
2023-03-20T07:05:55.015Z,11.44
2023-03-20T07:08:23.302Z,11.50
2023-03-20T07:10:53.454Z,11.76
2023-03-20T07:13:25.413Z,11.67
2023-03-20T07:16:04.408Z,11.54
2023-03-20T07:18:33.768Z,11.60
2023-03-20T07:21:05.549Z,11.70
2023-03-20T07:23:36.620Z,11.71
2023-03-20T07:26:07.412Z,11.85
2023-03-20T07:28:36.464Z,11.48
2023-03-20T07:31:06.911Z,11.62
2023-03-20T07:33:35.635Z,11.39
2023-03-20T07:36:03.654Z,11.61
2023-03-20T07:38:36.771Z,11.83
2023-03-20T07:41:05.261Z,11.56
2023-03-20T07:43:33.794Z,11.42
2023-03-20T07:46:03.899Z,11.87
2023-03-20T07:48:33.926Z,11.72
2023-03-20T07:51:07.721Z,11.75
2023-03-20T07:53:36.021Z,11.73
2023-03-20T07:56:04.496Z,11.58
2023-03-20T07:58:35.365Z,11.59
2023-03-20T08:01:04.164Z,11.46
2023-03-20T08:03:34.869Z,11.49
2023-03-20T08:06:06.382Z,11.49
2023-03-20T08:08:39.236Z,11.36
2023-03-20T08:11:08.638Z,11.60
2023-03-20T08:13:37.992Z,11.16
2023-03-20T08:16:10.196Z,11.41
2023-03-20T08:18:44.671Z,11.37
2023-03-20T08:21:13.128Z,11.53
2023-03-20T08:23:42.840Z,11.70
2023-03-20T08:26:11.593Z,11.79
2023-03-20T08:28:47.438Z,11.69
2023-03-20T08:31:19.086Z,11.58
2023-03-20T08:33:49.942Z,11.35
2023-03-20T08:36:20.568Z,11.57
2023-03-20T08:38:49.787Z,11.69
2023-03-20T08:41:18.205Z,11.54
2023-03-20T08:43:47.795Z,11.48
2023-03-20T08:46:17.062Z,11.52
2023-03-20T08:48:45.583Z,11.58
2023-03-20T08:51:16.354Z,11.75
2023-03-20T08:53:44.650Z,12.10
2023-03-20T08:56:12.833Z,12.27
2023-03-20T08:58:42.010Z,12.10
2023-03-20T09:01:15.478Z,12.03
2023-03-20T09:03:44.597Z,12.11
2023-03-20T09:06:12.940Z,11.86
2023-03-20T09:08:45.181Z,11.73
2023-03-20T09:11:14.487Z,12.06
2023-03-20T09:13:44.022Z,12.23
2023-03-20T09:16:16.312Z,12.30
2023-03-20T09:18:45.535Z,12.00
2023-03-20T09:21:13.806Z,11.85
2023-03-20T09:23:48.862Z,12.10
2023-03-20T09:26:20.063Z,12.27
2023-03-20T09:28:53.692Z,12.07
2023-03-20T09:31:23.523Z,11.82
2023-03-20T09:33:51.643Z,12.31
2023-03-20T09:36:22.978Z,12.13
2023-03-20T09:38:55.442Z,12.38
2023-03-20T09:41:28.055Z,12.87
2023-03-20T09:44:09.273Z,12.97
2023-03-20T09:47:21.236Z,13.57
2023-03-20T09:50:01.694Z,12.80
2023-03-20T09:52:34.321Z,13.02
2023-03-20T09:55:09.355Z,13.12
2023-03-20T09:57:41.642Z,13.55
2023-03-20T10:00:16.618Z,13.23
2023-03-20T10:02:51.676Z,12.87
2023-03-20T10:05:26.665Z,12.80
2023-03-20T10:07:58.745Z,12.71
2023-03-20T10:10:39.518Z,12.82
2023-03-20T10:13:22.998Z,12.81
2023-03-20T10:16:01.689Z,13.13
2023-03-20T10:18:34.724Z,13.29
2023-03-20T10:21:16.509Z,13.33
2023-03-20T10:23:57.521Z,13.44
2023-03-20T10:26:29.318Z,13.69
2023-03-20T10:29:02.497Z,14.33
2023-03-20T10:31:41.635Z,15.20
2023-03-20T10:34:26.009Z,14.47
2023-03-20T10:37:11.734Z,14.20
2023-03-20T10:39:51.457Z,14.46
2023-03-20T10:42:27.119Z,14.24
2023-03-20T10:44:59.708Z,14.39
2023-03-20T10:47:35.320Z,14.69
2023-03-20T10:50:09.103Z,15.03
2023-03-20T10:52:47.666Z,14.56
2023-03-20T10:55:22.774Z,15.78
2023-03-20T10:57:59.097Z,15.25
2023-03-20T11:00:30.341Z,15.24
2023-03-20T11:02:58.662Z,15.29
2023-03-20T11:05:31.992Z,14.85
2023-03-20T11:08:07.580Z,14.97
2023-03-20T11:10:38.752Z,14.72
2023-03-20T11:13:23.820Z,14.52
2023-03-20T11:15:55.583Z,14.69
2023-03-20T11:18:26.682Z,14.87
2023-03-20T11:20:58.765Z,15.00
2023-03-20T11:23:34.368Z,15.14
2023-03-20T11:26:06.241Z,15.66
2023-03-20T11:28:40.765Z,15.39
2023-03-20T11:31:18.903Z,15.00
2023-03-20T11:33:54.040Z,15.15
2023-03-20T11:36:27.914Z,15.62
2023-03-20T11:39:04.018Z,15.43
2023-03-20T11:41:31.976Z,15.71
2023-03-20T11:44:02.505Z,16.23
2023-03-20T11:46:33.588Z,15.99
2023-03-20T11:49:22.248Z,15.87
2023-03-20T11:52:22.487Z,15.74
2023-03-20T11:55:00.974Z,16.00
2023-03-20T11:57:36.824Z,16.38
2023-03-20T12:00:27.319Z,16.13
2023-03-20T12:02:58.047Z,15.93
2023-03-20T12:05:36.657Z,15.14
2023-03-20T12:08:14.153Z,15.16
2023-03-20T12:10:44.944Z,16.20
2023-03-20T12:13:18.869Z,16.70
2023-03-20T12:15:53.757Z,16.71
2023-03-20T12:18:31.492Z,16.69
2023-03-20T12:21:10.122Z,16.24
2023-03-20T12:23:46.442Z,15.76
2023-03-20T12:26:21.316Z,15.97
2023-03-20T12:28:57.800Z,15.37
2023-03-20T12:31:40.229Z,15.66
2023-03-20T12:34:16.170Z,15.62
2023-03-20T12:36:48.562Z,15.21
2023-03-20T12:39:20.302Z,15.80
2023-03-20T12:42:13.266Z,15.84
2023-03-20T12:44:50.616Z,15.50
2023-03-20T12:48:17.178Z,15.43
2023-03-20T12:50:52.426Z,14.84
2023-03-20T12:53:43.678Z,15.24
2023-03-20T12:56:50.816Z,15.05
2023-03-20T12:59:27.806Z,15.83
2023-03-20T13:02:00.588Z,15.44
2023-03-20T13:05:00.370Z,15.64
2023-03-20T13:07:49.089Z,15.91
2023-03-20T13:10:23.000Z,15.92
2023-03-20T13:13:08.824Z,15.29
2023-03-20T13:15:56.646Z,15.68
2023-03-20T13:18:45.207Z,15.88
2023-03-20T13:21:26.398Z,16.12
2023-03-20T13:24:07.791Z,16.06
2023-03-20T13:26:45.747Z,16.01
2023-03-20T13:29:21.849Z,16.35
2023-03-20T13:32:01.113Z,16.08
2023-03-20T13:34:43.247Z,16.26
2023-03-20T13:37:25.884Z,15.98
2023-03-20T13:40:04.891Z,15.72
2023-03-20T13:42:43.125Z,15.68
2023-03-20T13:45:37.686Z,16.01
2023-03-20T13:48:29.684Z,15.74
2023-03-20T13:51:06.702Z,16.06
2023-03-20T13:53:51.196Z,15.99
2023-03-20T13:56:30.941Z,16.19
2023-03-20T13:59:12.202Z,16.04
2023-03-20T14:02:05.981Z,16.30
2023-03-20T14:04:37.340Z,16.23
2023-03-20T14:07:35.852Z,16.02
2023-03-20T14:10:48.522Z,16.28
2023-03-20T14:13:23.825Z,15.32
2023-03-20T14:15:59.217Z,15.67
2023-03-20T14:18:32.586Z,16.12
2023-03-20T14:21:04.579Z,15.42
2023-03-20T14:23:38.699Z,15.69
2023-03-20T14:26:19.160Z,15.66
2023-03-20T14:29:00.002Z,15.53
2023-03-20T14:31:35.640Z,15.38
2023-03-20T14:37:04.150Z,15.65
2023-03-20T14:39:44.601Z,15.70
2023-03-20T14:42:40.564Z,15.74
2023-03-20T14:45:28.753Z,15.51
2023-03-20T14:48:06.169Z,15.42
2023-03-20T14:50:51.386Z,15.31
2023-03-20T14:53:37.269Z,15.32
2023-03-20T14:56:30.068Z,15.30
2023-03-20T14:59:20.560Z,14.88
2023-03-20T15:37:25.873Z,15.19
2023-03-20T15:40:02.932Z,15.07
2023-03-20T15:42:41.632Z,14.76
2023-03-20T15:45:40.070Z,14.90
2023-03-20T15:48:17.562Z,14.88
2023-03-20T15:51:07.050Z,15.11
2023-03-20T15:53:55.428Z,14.84
2023-03-20T15:59:40.671Z,14.58
2023-03-20T16:02:21.801Z,14.11
2023-03-20T16:05:02.726Z,13.89
2023-03-20T16:10:40.413Z,13.60
2023-03-20T16:13:41.272Z,13.89
2023-03-20T16:16:30.483Z,13.73
2023-03-20T16:19:20.688Z,13.95
2023-03-20T16:21:58.525Z,14.03
2023-03-20T16:24:29.481Z,14.00
2023-03-20T16:27:10.191Z,14.18
2023-03-20T16:29:50.637Z,14.02
2023-03-20T16:32:26.928Z,14.11
2023-03-20T16:35:10.801Z,14.21
2023-03-20T20:04:29.927Z,11.91
2023-03-20T20:07:33.668Z,11.52
2023-03-20T20:09:56.580Z,11.80
2023-03-20T20:12:35.603Z,11.85
2023-03-20T20:15:10.878Z,11.60
2023-03-20T20:17:50.153Z,11.50
2023-03-20T20:20:25.124Z,11.64
2023-03-20T20:22:54.980Z,11.63
2023-03-20T20:25:27.682Z,11.67
2023-03-20T20:28:02.573Z,11.81
2023-03-20T20:30:31.234Z,11.85
2023-03-20T20:33:05.134Z,11.56
2023-03-20T20:36:01.259Z,11.36
2023-03-20T20:38:48.864Z,11.36
2023-03-20T20:41:19.190Z,11.66
2023-03-20T20:44:15.151Z,11.52
2023-03-20T20:46:38.997Z,11.95
2023-03-20T20:49:18.766Z,11.44
2023-03-20T20:52:06.664Z,11.72
2023-03-20T20:54:37.703Z,11.57
2023-03-20T20:57:06.319Z,11.60
2023-03-20T20:59:37.914Z,11.49
2023-03-20T21:02:11.499Z,11.61
2023-03-20T21:04:43.705Z,11.48
2023-03-20T21:07:17.331Z,11.66
2023-03-20T21:09:46.333Z,11.66
2023-03-20T21:12:32.366Z,11.29
2023-03-20T21:15:03.874Z,11.61
2023-03-20T21:17:33.060Z,11.40
2023-03-20T21:20:02.439Z,11.55
2023-03-20T21:22:42.986Z,11.72
2023-03-20T21:25:15.173Z,11.50
2023-03-20T21:27:45.127Z,11.40
2023-03-20T21:30:19.718Z,11.45
2023-03-20T21:33:03.523Z,11.30
2023-03-20T21:38:58.510Z,11.40
2023-03-20T21:41:17.116Z,11.37
2023-03-20T21:44:01.440Z,11.39
2023-03-20T21:59:30.115Z,11.33
2023-03-20T22:02:02.487Z,11.10
2023-03-20T22:07:50.736Z,11.44
2023-03-20T22:11:09.580Z,11.46
2023-03-20T22:14:02.533Z,10.95
2023-03-20T22:19:35.874Z,11.38
2023-03-20T22:22:13.758Z,11.30
2023-03-20T22:27:55.299Z,11.22
2023-03-20T22:39:36.625Z,11.45
2023-03-20T22:42:43.347Z,11.15
2023-03-20T22:47:53.711Z,11.32
2023-03-20T22:50:22.397Z,11.37
2023-03-20T22:52:56.552Z,11.31
2023-03-20T22:55:30.101Z,11.23
2023-03-20T22:58:07.336Z,11.28
2023-03-20T23:00:39.045Z,11.42
2023-03-20T23:03:22.369Z,11.36
2023-03-20T23:05:55.611Z,11.54
2023-03-20T23:08:24.831Z,11.36
2023-03-20T23:10:55.232Z,11.29
2023-03-20T23:13:25.944Z,11.34
2023-03-20T23:15:54.644Z,11.28
2023-03-20T23:18:24.891Z,11.45
2023-03-20T23:21:00.541Z,11.33
2023-03-20T23:23:31.661Z,11.25
2023-03-20T23:26:05.667Z,11.20
2023-03-20T23:28:34.159Z,10.93
2023-03-20T23:31:10.671Z,10.96
2023-03-20T23:33:41.015Z,11.02
2023-03-20T23:36:24.762Z,11.24
2023-03-20T23:38:59.913Z,11.24
2023-03-20T23:41:54.043Z,11.21
2023-03-20T23:44:19.462Z,11.27
2023-03-20T23:46:55.952Z,11.27
2023-03-20T23:49:27.918Z,11.08
2023-03-20T23:51:59.740Z,11.20
2023-03-20T23:54:30.513Z,11.02
2023-03-20T23:56:58.662Z,10.99
2023-03-20T23:59:27.782Z,10.84
